Time;durP1;ratioP1;P1;durP2;ratioP2;P2;SDS_P1;SDS_P2;PMS_P1;PMS_P2;Temp;Humidity;BMP_temperature;BMP_pressure;BME280_temperature;BME280_humidity;BME280_pressure;Samples;Min_cycle;Max_cycle;Signal;HPM_P1;HPM_P2
2022/04/23 00:00:07;;;;;;;12.30;7.43;;;11.90;99.90;;;;;;5063721;28;20042;-76
2022/04/23 00:02:32;;;;;;;14.00;6.90;;;11.90;99.90;;;;;;5031733;28;20053;-76
2022/04/23 00:04:58;;;;;;;16.85;7.70;;;11.90;99.90;;;;;;5033233;28;20064;-76
2022/04/23 00:07:23;;;;;;;14.88;6.95;;;11.90;99.90;;;;;;5033797;28;20052;-76
2022/04/23 00:09:49;;;;;;;11.05;6.97;;;11.90;99.90;;;;;;5035139;28;20106;-76
2022/04/23 00:12:14;;;;;;;11.88;6.75;;;11.80;99.90;;;;;;5051348;28;20135;-76
2022/04/23 00:14:40;;;;;;;12.23;7.00;;;11.80;99.90;;;;;;5044025;28;20104;-76
2022/04/23 00:17:05;;;;;;;10.98;6.57;;;11.80;99.90;;;;;;5033090;28;20488;-76
2022/04/23 00:19:31;;;;;;;12.02;7.35;;;11.70;99.90;;;;;;5033511;28;20567;-76
2022/04/23 00:21:56;;;;;;;14.48;7.50;;;11.70;99.90;;;;;;5053068;28;20163;-76
2022/04/23 00:24:22;;;;;;;13.88;7.63;;;11.60;99.90;;;;;;5047990;28;20408;-76
2022/04/23 00:26:47;;;;;;;13.30;7.18;;;11.60;99.90;;;;;;5051934;28;20041;-76
2022/04/23 00:29:13;;;;;;;13.23;7.43;;;11.50;99.90;;;;;;5052777;28;20515;-76
2022/04/23 00:31:39;;;;;;;13.43;7.20;;;11.50;99.90;;;;;;5055314;28;20047;-76
2022/04/23 00:34:04;;;;;;;13.02;7.28;;;11.40;99.90;;;;;;5052038;28;20059;-76
2022/04/23 00:36:30;;;;;;;13.88;8.13;;;11.40;99.90;;;;;;5052529;28;20041;-76
2022/04/23 00:38:56;;;;;;;12.80;7.32;;;11.30;99.90;;;;;;5052552;28;20051;-76
2022/04/23 00:44:08;;;;;;;12.82;7.60;;;11.20;99.90;;;;;;5032806;28;20053;-76
2022/04/23 00:46:34;;;;;;;12.10;7.65;;;11.20;99.90;;;;;;5032194;28;20389;-76
2022/04/23 00:48:59;;;;;;;11.45;7.07;;;11.20;99.90;;;;;;5032166;28;20048;-76
2022/04/23 00:51:32;;;;;;;12.63;8.07;;;11.10;99.90;;;;;;5047520;28;20037;-76
2022/04/23 00:54:01;;;;;;;13.02;7.88;;;11.10;99.90;;;;;;5058763;28;20044;-76
2022/04/23 00:56:26;;;;;;;12.10;7.90;;;11.10;99.90;;;;;;5060609;28;20095;-76
2022/04/23 00:58:53;;;;;;;13.18;7.50;;;11.00;99.90;;;;;;5032167;28;20045;-76
2022/04/23 01:01:23;;;;;;;15.50;7.50;;;11.00;99.90;;;;;;5031493;28;20380;-76
2022/04/23 01:03:50;;;;;;;14.65;8.00;;;10.90;99.90;;;;;;5030673;28;20054;-76
2022/04/23 01:06:16;;;;;;;11.00;7.18;;;10.90;99.90;;;;;;5032320;28;20049;-76
2022/04/23 01:08:42;;;;;;;13.98;7.65;;;10.90;99.90;;;;;;5029885;28;20041;-76
2022/04/23 01:11:07;;;;;;;12.73;8.35;;;10.80;99.90;;;;;;5043676;28;20052;-76
2022/04/23 01:13:33;;;;;;;14.65;8.20;;;10.80;99.90;;;;;;5051185;28;20060;-76
2022/04/23 01:16:00;;;;;;;11.13;7.70;;;10.80;99.90;;;;;;5051506;28;20045;-76
2022/04/23 01:18:26;;;;;;;15.07;8.80;;;10.70;99.90;;;;;;5051982;28;20048;-76
2022/04/23 01:20:53;;;;;;;14.70;8.68;;;10.70;99.90;;;;;;5051927;28;20040;-76
2022/04/23 01:23:19;;;;;;;12.52;8.68;;;10.70;99.90;;;;;;5028508;28;20102;-76
2022/04/23 01:25:46;;;;;;;12.20;7.93;;;10.60;99.90;;;;;;5036442;28;20080;-76
2022/04/23 01:28:13;;;;;;;14.38;8.93;;;10.60;99.90;;;;;;5032043;28;20042;-76
2022/04/23 01:30:38;;;;;;;16.27;8.57;;;10.60;99.90;;;;;;5030841;28;20477;-76
2022/04/23 01:33:04;;;;;;;18.50;9.07;;;10.60;99.90;;;;;;5053210;28;20044;-76
2022/04/23 01:35:31;;;;;;;13.05;8.52;;;10.50;99.90;;;;;;5051182;28;20043;-76
2022/04/23 01:37:57;;;;;;;16.48;8.98;;;10.50;99.90;;;;;;5050991;28;20040;-76
2022/04/23 01:40:22;;;;;;;14.27;9.13;;;10.50;99.90;;;;;;5048881;28;20393;-76
2022/04/23 01:42:48;;;;;;;15.60;9.68;;;10.50;99.90;;;;;;5051257;28;20084;-76
2022/04/23 01:45:13;;;;;;;17.08;8.98;;;10.40;99.90;;;;;;5051020;28;20424;-76
2022/04/23 01:47:39;;;;;;;20.80;10.07;;;10.40;99.90;;;;;;5049723;28;20041;-76
2022/04/23 01:50:06;;;;;;;14.88;8.98;;;10.40;99.90;;;;;;5056815;28;20082;-76
2022/04/23 01:52:31;;;;;;;15.52;10.00;;;10.40;99.90;;;;;;5066594;28;20045;-76
2022/04/23 01:54:57;;;;;;;14.65;9.40;;;10.40;99.90;;;;;;5051162;28;20051;-76
2022/04/23 01:57:22;;;;;;;16.25;9.68;;;10.30;99.90;;;;;;5051469;28;20045;-76
2022/04/23 01:59:48;;;;;;;15.07;10.05;;;10.30;99.90;;;;;;5050473;28;20102;-76
2022/04/23 02:02:13;;;;;;;15.38;10.30;;;10.30;99.90;;;;;;5050890;28;20052;-76
2022/04/23 02:04:39;;;;;;;13.90;9.43;;;10.20;99.90;;;;;;5050642;28;20048;-76
2022/04/23 02:07:04;;;;;;;15.48;9.88;;;10.20;99.90;;;;;;5041667;28;20129;-76
2022/04/23 02:09:30;;;;;;;14.98;10.32;;;10.20;99.90;;;;;;5031033;28;20037;-76
2022/04/23 02:11:56;;;;;;;17.13;10.35;;;10.20;99.90;;;;;;5049927;28;20131;-76
2022/04/23 02:14:22;;;;;;;14.73;10.07;;;10.20;99.90;;;;;;5049704;28;20530;-76
2022/04/23 02:16:47;;;;;;;16.58;10.13;;;10.10;99.90;;;;;;5051010;28;20127;-76
2022/04/23 02:19:13;;;;;;;14.45;10.18;;;10.10;99.90;;;;;;5050302;28;20045;-76
2022/04/23 02:21:39;;;;;;;14.85;9.65;;;10.10;99.90;;;;;;5038635;28;20037;-76
2022/04/23 02:24:05;;;;;;;17.38;11.38;;;10.10;99.90;;;;;;5027730;28;20033;-76
2022/04/23 02:26:31;;;;;;;17.77;9.77;;;10.00;99.90;;;;;;5035588;28;20076;-76
2022/04/23 02:28:56;;;;;;;16.05;11.00;;;10.00;99.90;;;;;;5049724;28;20902;-76
2022/04/23 02:31:22;;;;;;;17.50;10.45;;;10.00;99.90;;;;;;5059209;28;20041;-76
2022/04/23 02:33:47;;;;;;;14.50;10.80;;;10.00;99.90;;;;;;5056659;28;20052;-76
2022/04/23 02:36:15;;;;;;;16.90;10.10;;;9.90;99.90;;;;;;5041018;28;20042;-76
2022/04/23 02:38:40;;;;;;;14.73;10.25;;;9.90;99.90;;;;;;5040124;28;20044;-76
2022/04/23 02:41:09;;;;;;;15.15;10.38;;;9.90;99.90;;;;;;5057036;28;20489;-76
2022/04/23 02:43:36;;;;;;;14.98;10.25;;;9.90;99.90;;;;;;5056975;28;20044;-76
2022/04/23 02:46:05;;;;;;;15.77;10.38;;;9.80;99.90;;;;;;5060201;28;20040;-76
2022/04/23 02:48:31;;;;;;;15.38;10.30;;;9.80;99.90;;;;;;5073186;28;20195;-76
2022/04/23 02:50:57;;;;;;;18.58;11.18;;;9.80;99.90;;;;;;5037441;28;20120;-76
2022/04/23 02:53:23;;;;;;;18.65;10.82;;;9.80;99.90;;;;;;5037204;28;20085;-76
2022/04/23 02:55:48;;;;;;;15.88;10.52;;;9.80;99.90;;;;;;5037090;28;20076;-76
2022/04/23 02:58:14;;;;;;;17.08;11.15;;;9.70;99.90;;;;;;5035709;28;20056;-76
2022/04/23 03:00:41;;;;;;;16.63;10.25;;;9.70;99.90;;;;;;5035659;28;20437;-76
2022/04/23 03:03:08;;;;;;;13.73;10.30;;;9.70;99.90;;;;;;5035377;28;20129;-76
2022/04/23 03:05:35;;;;;;;15.48;10.57;;;9.70;99.90;;;;;;5037130;28;20061;-76
2022/04/23 03:08:00;;;;;;;15.65;10.75;;;9.60;99.90;;;;;;5036370;28;20056;-76
2022/04/23 03:10:29;;;;;;;17.70;10.10;;;9.60;99.90;;;;;;5044307;28;20041;-75
2022/04/23 03:12:57;;;;;;;15.35;10.13;;;9.60;99.90;;;;;;5056021;28;20049;-76
2022/04/23 03:15:25;;;;;;;17.45;10.27;;;9.60;99.90;;;;;;5056457;28;20041;-76
2022/04/23 03:18:04;;;;;;;14.27;10.43;;;9.60;99.90;;;;;;5045405;28;20041;-76
2022/04/23 03:20:29;;;;;;;16.02;10.77;;;9.50;99.90;;;;;;5047427;28;20162;-76
2022/04/23 03:22:55;;;;;;;15.40;10.70;;;9.50;99.90;;;;;;5052058;28;20040;-76
2022/04/23 03:25:20;;;;;;;16.70;10.57;;;9.50;99.90;;;;;;5056972;28;20504;-76
2022/04/23 03:27:46;;;;;;;14.85;10.50;;;9.50;99.90;;;;;;5056582;28;20045;-76
2022/04/23 03:30:11;;;;;;;16.98;10.80;;;9.40;99.90;;;;;;5056389;28;20448;-76
2022/04/23 03:32:37;;;;;;;18.85;10.65;;;9.50;99.90;;;;;;5071332;28;20104;-76
2022/04/23 03:35:05;;;;;;;16.73;10.70;;;9.40;99.90;;;;;;5076964;28;20044;-76
2022/04/23 03:37:31;;;;;;;17.85;10.60;;;9.40;99.90;;;;;;5073176;28;20043;-76
2022/04/23 03:39:56;;;;;;;15.57;10.60;;;9.40;99.90;;;;;;5059059;28;20045;-76
2022/04/23 03:42:22;;;;;;;17.60;11.27;;;9.30;99.90;;;;;;5057419;28;20384;-76
2022/04/23 03:44:48;;;;;;;16.08;11.02;;;9.30;99.90;;;;;;5068527;28;20083;-76
2022/04/23 03:47:15;;;;;;;14.18;9.88;;;9.30;99.90;;;;;;5034034;28;20037;-76
2022/04/23 03:49:41;;;;;;;16.05;10.18;;;9.30;99.90;;;;;;5033087;28;20497;-76
2022/04/23 03:52:07;;;;;;;14.48;10.20;;;9.20;99.90;;;;;;5033187;28;20052;-76
2022/04/23 03:54:32;;;;;;;16.25;10.60;;;9.30;99.90;;;;;;5033662;28;20120;-76
2022/04/23 03:56:58;;;;;;;15.90;10.23;;;9.20;99.90;;;;;;5030945;28;20049;-76
2022/04/23 03:59:23;;;;;;;14.50;10.40;;;9.20;99.90;;;;;;5037497;28;20056;-76
2022/04/23 04:01:53;;;;;;;13.98;9.80;;;9.20;99.90;;;;;;5052882;28;20133;-76
2022/04/23 04:04:18;;;;;;;16.20;10.30;;;9.20;99.90;;;;;;5052824;28;20060;-76
2022/04/23 04:06:44;;;;;;;15.73;10.32;;;9.10;99.90;;;;;;5053229;28;20049;-76
2022/04/23 04:09:09;;;;;;;15.40;11.50;;;9.10;99.90;;;;;;5053312;28;20131;-76
2022/04/23 04:14:19;;;;;;;17.98;11.32;;;9.10;99.90;;;;;;5037978;28;20057;-76
2022/04/23 04:16:46;;;;;;;16.73;11.02;;;9.10;99.90;;;;;;5032898;28;20045;-76
2022/04/23 04:19:16;;;;;;;14.20;10.27;;;9.10;99.90;;;;;;5032622;28;20089;-76
2022/04/23 04:21:46;;;;;;;13.63;10.30;;;9.10;99.90;;;;;;5047281;28;20045;-76
2022/04/23 04:24:13;;;;;;;15.70;10.77;;;9.00;99.90;;;;;;5045427;28;20540;-76
2022/04/23 04:26:40;;;;;;;14.30;10.35;;;9.00;99.90;;;;;;5051099;28;20133;-76
2022/04/23 04:29:06;;;;;;;14.80;10.07;;;9.00;99.90;;;;;;5033409;28;20037;-76
2022/04/23 04:31:47;;;;;;;18.17;10.95;;;9.00;99.90;;;;;;5046810;28;20048;-75
2022/04/23 04:34:31;;;;;;;13.88;10.10;;;9.00;99.90;;;;;;5072326;28;20538;-76
2022/04/23 04:37:07;;;;;;;14.73;10.63;;;9.00;99.90;;;;;;5032076;28;20088;-76
2022/04/23 04:39:35;;;;;;;14.40;10.93;;;9.00;99.90;;;;;;5044089;28;20738;-76
2022/04/23 04:42:01;;;;;;;14.35;11.23;;;8.90;99.90;;;;;;5042895;28;20051;-76
2022/04/23 04:44:26;;;;;;;21.05;11.15;;;9.00;99.90;;;;;;5032783;28;20046;-75
2022/04/23 04:46:52;;;;;;;14.00;11.02;;;8.90;99.90;;;;;;5030348;28;20111;-76
2022/04/23 04:49:18;;;;;;;17.33;11.07;;;8.90;99.90;;;;;;5032751;28;20141;-76
2022/04/23 04:51:44;;;;;;;16.23;10.38;;;8.90;99.90;;;;;;5032810;28;20068;-76
2022/04/23 04:54:09;;;;;;;14.52;10.57;;;8.90;99.90;;;;;;5032186;28;20076;-76
2022/04/23 04:56:35;;;;;;;15.70;10.10;;;8.90;99.90;;;;;;5030928;28;20049;-75
2022/04/23 04:59:01;;;;;;;15.52;11.02;;;8.90;99.90;;;;;;5032325;28;20115;-76
2022/04/23 05:01:27;;;;;;;18.05;12.05;;;8.90;99.90;;;;;;5031267;28;20049;-76
2022/04/23 05:03:53;;;;;;;14.50;10.25;;;8.90;99.90;;;;;;5032604;28;20045;-76
2022/04/23 05:06:20;;;;;;;17.00;11.57;;;8.90;99.90;;;;;;5036042;28;20048;-76
2022/04/23 05:08:45;;;;;;;14.90;11.65;;;8.90;99.90;;;;;;5050992;28;20944;-76
2022/04/23 05:11:11;;;;;;;15.52;11.00;;;8.90;99.90;;;;;;5046505;28;20049;-76
2022/04/23 05:13:38;;;;;;;13.27;10.45;;;8.90;99.90;;;;;;5051858;28;20044;-77
2022/04/23 05:16:06;;;;;;;14.15;11.02;;;8.90;99.90;;;;;;5050026;28;20049;-76
2022/04/23 05:18:34;;;;;;;15.20;11.07;;;9.00;99.90;;;;;;5050387;28;20528;-76
2022/04/23 05:21:00;;;;;;;15.48;10.85;;;9.00;99.90;;;;;;5051782;28;20037;-76
2022/04/23 05:23:26;;;;;;;17.60;10.82;;;9.00;99.90;;;;;;5045419;28;20496;-76
2022/04/23 05:25:52;;;;;;;13.88;10.50;;;9.00;99.90;;;;;;5052151;28;20041;-76
2022/04/23 05:28:18;;;;;;;16.92;11.43;;;9.00;99.90;;;;;;5051745;28;20041;-76
2022/04/23 05:30:44;;;;;;;16.55;10.55;;;9.00;99.90;;;;;;5049530;28;20404;-75
2022/04/23 05:33:10;;;;;;;14.57;10.93;;;9.10;99.90;;;;;;5050351;28;20041;-76
2022/04/23 05:35:36;;;;;;;15.50;10.02;;;9.10;99.90;;;;;;5060476;28;20365;-76
2022/04/23 05:38:02;;;;;;;18.50;10.25;;;9.10;99.90;;;;;;5053788;28;20057;-76
2022/04/23 05:40:28;;;;;;;15.60;11.10;;;9.10;99.90;;;;;;5047784;28;20404;-76
2022/04/23 05:43:00;;;;;;;16.60;11.05;;;9.20;99.90;;;;;;5051248;28;20438;-76
2022/04/23 05:45:26;;;;;;;13.55;9.85;;;9.20;99.90;;;;;;5051235;28;20102;-76
2022/04/23 05:47:52;;;;;;;14.95;11.05;;;9.20;99.90;;;;;;5051508;28;20496;-76
2022/04/23 05:50:18;;;;;;;13.30;9.77;;;9.20;99.90;;;;;;5049467;28;20045;-76
2022/04/23 05:52:44;;;;;;;16.20;10.82;;;9.20;99.90;;;;;;5037589;28;20124;-76
2022/04/23 05:55:10;;;;;;;17.60;10.38;;;9.30;99.90;;;;;;5031565;28;20033;-76
2022/04/23 05:57:37;;;;;;;15.65;10.30;;;9.30;99.90;;;;;;5030480;28;20049;-76
2022/04/23 06:00:09;;;;;;;14.35;10.85;;;9.30;99.90;;;;;;5030555;28;20048;-76
2022/04/23 06:02:35;;;;;;;14.63;10.10;;;9.40;99.90;;;;;;5034504;28;20124;-76
2022/04/23 06:05:02;;;;;;;13.32;10.20;;;9.40;99.90;;;;;;5050569;28;20515;-76
2022/04/23 06:07:27;;;;;;;13.57;9.82;;;9.40;99.90;;;;;;5032269;28;20052;-76
2022/04/23 06:09:53;;;;;;;14.43;9.98;;;9.50;99.90;;;;;;5033890;28;20176;-76
2022/04/23 06:12:19;;;;;;;14.27;10.05;;;9.50;99.90;;;;;;5050690;28;20044;-76
2022/04/23 06:14:44;;;;;;;13.82;10.43;;;9.50;99.90;;;;;;5049756;28;20098;-76
2022/04/23 06:17:12;;;;;;;13.43;10.68;;;9.50;99.90;;;;;;5050914;28;20052;-76
2022/04/23 06:19:41;;;;;;;16.33;10.95;;;9.60;99.90;;;;;;5047264;28;20064;-76
2022/04/23 06:22:07;;;;;;;14.07;10.13;;;9.60;99.90;;;;;;5031237;28;20038;-76
2022/04/23 06:24:34;;;;;;;14.55;10.50;;;9.60;99.90;;;;;;5025941;28;20072;-76
2022/04/23 06:26:59;;;;;;;14.73;10.88;;;9.60;99.90;;;;;;5030978;28;20171;-76
2022/04/23 06:29:25;;;;;;;16.45;10.82;;;9.70;99.90;;;;;;5050907;28;20120;-76
2022/04/23 06:31:51;;;;;;;16.25;10.45;;;9.80;99.90;;;;;;5059351;28;20049;-76
2022/04/23 06:34:16;;;;;;;14.02;10.40;;;9.80;99.90;;;;;;5055047;28;20113;-76
2022/04/23 06:36:42;;;;;;;15.32;10.43;;;9.90;99.90;;;;;;5030982;28;20133;-76
2022/04/23 06:39:08;;;;;;;15.63;10.73;;;9.90;99.90;;;;;;5037240;28;20048;-76
2022/04/23 06:41:34;;;;;;;15.25;10.80;;;10.00;99.90;;;;;;5050595;28;20534;-76
2022/04/23 06:43:59;;;;;;;14.45;10.65;;;10.10;99.90;;;;;;5050987;28;20052;-75
2022/04/23 06:46:25;;;;;;;14.80;10.75;;;10.10;99.90;;;;;;5050310;28;20049;-76
2022/04/23 06:48:51;;;;;;;13.50;10.07;;;10.30;99.90;;;;;;5050339;28;20549;-76
2022/04/23 06:51:17;;;;;;;14.63;10.95;;;10.20;99.90;;;;;;5049533;28;20063;-76
2022/04/23 06:53:42;;;;;;;14.57;10.43;;;10.30;99.90;;;;;;5050066;28;20041;-76
2022/04/23 06:56:09;;;;;;;17.00;10.85;;;10.30;99.90;;;;;;5050757;28;20124;-76
2022/04/23 06:58:34;;;;;;;15.73;11.10;;;10.40;99.90;;;;;;5051811;28;20068;-76
2022/04/23 07:01:00;;;;;;;15.52;11.20;;;10.40;99.90;;;;;;5070179;28;20493;-76
2022/04/23 07:03:27;;;;;;;14.63;10.68;;;10.50;99.90;;;;;;5036409;28;20140;-76
2022/04/23 07:05:52;;;;;;;16.42;10.45;;;10.60;99.90;;;;;;5031040;28;20385;-76
2022/04/23 07:08:18;;;;;;;15.13;11.07;;;10.60;99.90;;;;;;5030026;28;20076;-76
2022/04/23 07:10:44;;;;;;;16.77;10.90;;;10.70;99.90;;;;;;5050029;28;20049;-76
2022/04/23 07:13:11;;;;;;;19.58;10.63;;;10.70;99.90;;;;;;5054478;28;20071;-76
2022/04/23 07:15:37;;;;;;;14.40;10.38;;;10.70;99.90;;;;;;5052685;28;20056;-76
2022/04/23 07:18:03;;;;;;;14.85;10.68;;;10.80;99.90;;;;;;5041563;28;20132;-76
2022/04/23 07:20:29;;;;;;;14.65;11.68;;;10.90;99.90;;;;;;5053997;28;20128;-76
2022/04/23 07:25:39;;;;;;;14.95;11.10;;;11.00;99.90;;;;;;5034216;28;20049;-76
2022/04/23 07:28:05;;;;;;;16.25;10.35;;;11.10;99.90;;;;;;5045425;28;20048;-76
2022/04/23 07:30:31;;;;;;;17.25;11.00;;;11.20;99.90;;;;;;5045339;28;20049;-76
2022/04/23 07:32:57;;;;;;;13.13;10.70;;;11.20;99.90;;;;;;5071704;28;20048;-76
2022/04/23 07:38:11;;;;;;;;;;;11.30;99.90;;;;;;5074550;28;20044;-76
2022/04/23 07:40:40;;;;;;;17.55;10.43;;;11.40;99.90;;;;;;5054317;28;20011;-76
2022/04/23 07:43:12;;;;;;;15.02;10.38;;;11.40;99.90;;;;;;5053437;28;20045;-76
2022/04/23 07:45:38;;;;;;;12.75;10.07;;;11.50;99.90;;;;;;5035843;28;20033;-76
2022/04/23 07:48:08;;;;;;;14.07;10.75;;;11.50;99.90;;;;;;5032463;28;20077;-76
2022/04/23 07:50:34;;;;;;;14.63;10.20;;;11.60;99.90;;;;;;5033100;28;20552;-75
2022/04/23 07:53:00;;;;;;;14.63;11.13;;;11.60;99.90;;;;;;5033959;28;20041;-76
2022/04/23 07:55:26;;;;;;;13.85;10.95;;;11.70;99.90;;;;;;5033185;28;20052;-76
2022/04/23 07:57:52;;;;;;;13.38;10.48;;;11.80;99.90;;;;;;5031773;28;20098;-76
2022/04/23 08:00:17;;;;;;;16.30;10.35;;;11.90;99.90;;;;;;5048910;28;20049;-76
2022/04/23 08:02:43;;;;;;;13.13;10.85;;;11.90;99.90;;;;;;5053461;28;20086;-76
2022/04/23 08:05:12;;;;;;;13.82;10.52;;;12.00;99.90;;;;;;5053072;28;20036;-76
2022/04/23 08:07:39;;;;;;;11.75;9.73;;;12.10;99.90;;;;;;5053142;28;20511;-76
2022/04/23 08:10:08;;;;;;;17.00;11.35;;;12.20;99.90;;;;;;5053048;28;20041;-76
2022/04/23 08:12:35;;;;;;;12.90;10.05;;;12.30;99.90;;;;;;5045900;28;20056;-76
2022/04/23 08:15:02;;;;;;;13.18;10.10;;;12.40;99.90;;;;;;5033543;28;20084;-76
2022/04/23 08:17:28;;;;;;;14.70;10.85;;;12.50;99.90;;;;;;5032838;28;20041;-76
2022/04/23 08:19:53;;;;;;;13.57;9.45;;;12.60;99.90;;;;;;5038413;28;20052;-76
2022/04/23 08:22:19;;;;;;;13.35;9.15;;;12.70;99.90;;;;;;5049341;28;20048;-76
2022/04/23 08:24:44;;;;;;;15.27;10.10;;;12.90;99.90;;;;;;5050225;28;20047;-76
2022/04/23 08:27:10;;;;;;;11.73;9.40;;;12.90;99.90;;;;;;5040756;28;20121;-76
2022/04/23 08:32:20;;;;;;;10.53;8.77;;;13.10;98.90;;;;;;5060242;28;20045;-76
2022/04/23 08:34:46;;;;;;;14.88;9.70;;;13.20;98.40;;;;;;5072804;28;20650;-76
2022/04/23 08:37:14;;;;;;;17.05;10.73;;;13.30;98.60;;;;;;5072698;28;20396;-76
2022/04/23 08:39:42;;;;;;;13.73;9.63;;;13.40;98.10;;;;;;5060913;28;20138;-76
2022/04/23 08:42:09;;;;;;;11.80;9.27;;;13.50;98.00;;;;;;5034691;28;20056;-76
2022/04/23 08:44:37;;;;;;;15.00;9.02;;;13.60;97.60;;;;;;5051270;28;20040;-76
2022/04/23 08:47:04;;;;;;;15.23;9.80;;;13.60;97.30;;;;;;5052465;28;20373;-76
2022/04/23 08:49:34;;;;;;;13.80;9.10;;;13.80;97.80;;;;;;5052183;28;20814;-76
2022/04/23 08:52:18;;;;;;;15.18;9.18;;;13.90;97.60;;;;;;5052488;28;20056;-77
2022/04/23 08:54:44;;;;;;;13.18;9.13;;;14.00;96.10;;;;;;5045740;28;20038;-76
2022/04/23 08:57:09;;;;;;;14.55;9.63;;;14.10;96.50;;;;;;5032746;28;20045;-76
2022/04/23 08:59:36;;;;;;;13.95;9.20;;;14.20;96.50;;;;;;5041455;28;20094;-76
2022/04/23 09:02:07;;;;;;;14.57;9.15;;;14.30;95.70;;;;;;5051019;28;20420;-76
2022/04/23 09:04:33;;;;;;;17.52;10.07;;;14.30;95.80;;;;;;5051773;28;20481;-76
2022/04/23 09:06:58;;;;;;;13.32;9.43;;;14.40;95.20;;;;;;5051864;28;20090;-76
2022/04/23 09:09:25;;;;;;;12.80;8.85;;;14.50;95.20;;;;;;5048123;28;20057;-76
2022/04/23 09:11:56;;;;;;;21.80;10.15;;;14.50;94.40;;;;;;5052028;28;20094;-76
2022/04/23 09:14:30;;;;;;;12.35;8.63;;;14.60;94.20;;;;;;5051652;28;20049;-76
2022/04/23 09:25:35;;;;;;;14.85;9.43;;;14.90;93.10;;;;;;5031984;28;20053;-76
2022/04/23 09:28:14;;;;;;;13.75;9.38;;;15.10;93.30;;;;;;5030072;28;20056;-77
2022/04/23 09:30:40;;;;;;;11.68;9.57;;;15.20;93.50;;;;;;5031864;28;20037;-77
2022/04/23 09:33:05;;;;;;;12.40;9.35;;;15.20;93.10;;;;;;5031940;28;20527;-77
2022/04/23 09:35:31;;;;;;;15.88;10.57;;;15.30;94.00;;;;;;5031159;28;20565;-77
2022/04/23 09:38:13;;;;;;;16.17;10.82;;;15.30;92.90;;;;;;5032084;28;20103;-76
2022/04/23 09:40:39;;;;;;;13.15;10.10;;;15.40;92.80;;;;;;5050854;28;20049;-76
2022/04/23 09:43:06;;;;;;;12.50;9.68;;;15.50;93.10;;;;;;5051384;28;20059;-77
2022/04/23 09:45:34;;;;;;;13.27;10.13;;;15.60;93.00;;;;;;5051310;28;20091;-76
2022/04/23 09:48:16;;;;;;;15.88;11.00;;;15.60;92.80;;;;;;5051435;28;20049;-76
2022/04/23 09:50:44;;;;;;;14.18;10.95;;;15.70;92.20;;;;;;5045294;28;20045;-76
2022/04/23 09:53:18;;;;;;;12.40;10.48;;;15.80;92.20;;;;;;5031685;28;20091;-76
2022/04/23 09:55:45;;;;;;;15.25;10.90;;;15.80;92.70;;;;;;5049260;28;20072;-76
2022/04/23 09:58:13;;;;;;;15.48;9.88;;;15.90;93.00;;;;;;5070983;28;20161;-76
2022/04/23 10:00:43;;;;;;;12.23;10.02;;;16.10;92.60;;;;;;5070924;28;20065;-77
2022/04/23 10:03:10;;;;;;;16.30;10.23;;;16.20;92.40;;;;;;5049463;28;20048;-76
2022/04/23 10:05:38;;;;;;;15.75;10.40;;;16.30;91.40;;;;;;5040181;28;20405;-77
2022/04/23 10:08:11;;;;;;;12.07;10.07;;;16.30;91.30;;;;;;5029984;28;20056;-76
2022/04/23 10:10:42;;;;;;;16.73;10.93;;;16.40;91.70;;;;;;5047492;28;20048;-77
2022/04/23 10:13:10;;;;;;;15.85;11.10;;;16.50;91.80;;;;;;5051061;28;20149;-77
2022/04/23 10:15:37;;;;;;;12.90;10.20;;;16.60;90.60;;;;;;5050529;28;20532;-76
2022/04/23 10:18:07;;;;;;;14.30;9.85;;;16.70;90.60;;;;;;5068956;28;20048;-76
2022/04/23 10:20:34;;;;;;;12.40;8.75;;;16.80;91.30;;;;;;5044128;28;20056;-77
2022/04/23 10:23:40;;;;;;;13.25;9.45;;;16.80;89.60;;;;;;5044728;28;20044;-76
2022/04/23 10:26:14;;;;;;;16.98;9.45;;;17.00;90.40;;;;;;5050294;28;20489;-77
2022/04/23 10:28:44;;;;;;;15.03;9.47;;;17.10;89.50;;;;;;5049633;28;20513;-76
2022/04/23 10:31:15;;;;;;;14.93;10.23;;;17.20;87.10;;;;;;5053387;28;20043;-77
2022/04/23 10:33:50;;;;;;;14.07;9.80;;;17.20;87.60;;;;;;5050258;28;20038;-76
2022/04/23 10:36:16;;;;;;;12.00;9.95;;;17.30;87.90;;;;;;5031093;28;20128;-77
2022/04/23 10:38:45;;;;;;;16.25;10.18;;;17.40;88.10;;;;;;5033566;28;20040;-77
2022/04/23 10:41:13;;;;;;;15.98;10.55;;;17.50;88.00;;;;;;5051197;28;20362;-76
2022/04/23 10:44:05;;;;;;;11.98;10.13;;;17.60;87.90;;;;;;5050559;28;20087;-76
2022/04/23 10:46:36;;;;;;;12.45;10.48;;;17.70;87.60;;;;;;5049465;28;20076;-77
2022/04/23 10:49:13;;;;;;;12.75;10.00;;;17.80;86.00;;;;;;5033492;28;20053;-77
2022/04/23 10:51:58;;;;;;;14.25;10.52;;;17.90;85.80;;;;;;5033228;28;20421;-77
2022/04/23 10:54:39;;;;;;;13.38;10.18;;;18.00;84.30;;;;;;5034381;28;20045;-77
2022/04/23 10:57:10;;;;;;;11.75;10.23;;;18.00;83.60;;;;;;5035076;28;20045;-77
2022/04/23 10:59:45;;;;;;;13.73;10.30;;;18.00;85.00;;;;;;5054164;28;20044;-77
2022/04/23 11:02:14;;;;;;;12.98;9.73;;;18.20;85.20;;;;;;5040840;28;20053;-77
2022/04/23 11:13:39;;;;;;;12.38;8.85;;;18.50;79.00;;;;;;5066367;28;20048;-76
2022/04/23 11:16:06;;;;;;;12.25;8.77;;;18.60;80.40;;;;;;5048761;28;20045;-76
2022/04/23 11:18:33;;;;;;;12.05;8.20;;;18.70;76.80;;;;;;5032797;28;20059;-77
2022/04/23 11:21:23;;;;;;;14.60;9.30;;;18.70;77.50;;;;;;5048377;28;20084;-77
2022/04/23 11:23:49;;;;;;;10.13;9.02;;;18.80;77.60;;;;;;5049296;28;20380;-77
2022/04/23 11:26:17;;;;;;;12.82;7.65;;;18.80;76.80;;;;;;5054413;28;20055;-77
2022/04/23 11:28:44;;;;;;;10.65;7.90;;;18.80;77.30;;;;;;5053002;28;20127;-76
2022/04/23 11:31:11;;;;;;;11.07;7.53;;;18.90;72.00;;;;;;5042172;28;20484;-76
2022/04/23 11:33:48;;;;;;;13.32;8.02;;;19.00;74.80;;;;;;5072475;28;20046;-76
2022/04/23 11:36:13;;;;;;;11.27;7.80;;;19.10;73.50;;;;;;5073585;28;20052;-76
2022/04/23 11:38:41;;;;;;;10.13;7.30;;;19.10;73.00;;;;;;5070295;28;20041;-76
2022/04/23 11:41:07;;;;;;;9.02;7.07;;;19.20;72.40;;;;;;5052738;28;20044;-76
2022/04/23 11:43:39;;;;;;;9.48;7.78;;;19.30;72.60;;;;;;5051439;28;20094;-76
2022/04/23 11:46:08;;;;;;;14.82;8.68;;;19.20;70.50;;;;;;5054032;28;20067;-76
2022/04/23 11:48:41;;;;;;;17.67;8.25;;;19.20;71.20;;;;;;5052571;28;20049;-76
2022/04/23 11:51:07;;;;;;;10.32;7.70;;;19.20;71.10;;;;;;5053204;28;20128;-76
2022/04/23 11:53:58;;;;;;;12.32;8.07;;;19.30;70.70;;;;;;5053539;28;20051;-76
2022/04/23 11:56:34;;;;;;;12.40;8.40;;;19.30;70.20;;;;;;5052832;28;20052;-77
2022/04/23 11:59:09;;;;;;;10.45;7.80;;;19.40;71.10;;;;;;5035143;28;20045;-76
2022/04/23 12:01:36;;;;;;;10.55;7.25;;;19.60;71.40;;;;;;5033250;28;20057;-77
2022/04/23 12:04:02;;;;;;;11.45;8.75;;;19.80;70.10;;;;;;5033225;28;20042;-77
2022/04/23 12:06:44;;;;;;;18.90;8.55;;;19.80;69.00;;;;;;5048591;28;20500;-76
2022/04/23 12:09:11;;;;;;;11.07;6.80;;;19.90;69.30;;;;;;5053445;28;20370;-77
2022/04/23 12:11:37;;;;;;;13.18;6.60;;;20.00;70.40;;;;;;5046607;28;20033;-76
2022/04/23 12:14:03;;;;;;;11.18;6.47;;;20.00;67.70;;;;;;5033343;28;20049;-76
2022/04/23 12:16:39;;;;;;;9.60;6.50;;;20.00;66.70;;;;;;5033329;28;20087;-77
2022/04/23 12:19:10;;;;;;;10.93;6.65;;;20.10;67.90;;;;;;5032229;28;20154;-77
2022/04/23 12:21:37;;;;;;;8.77;6.60;;;20.30;68.00;;;;;;5052649;28;20037;-76
2022/04/23 12:24:04;;;;;;;13.80;7.60;;;20.30;63.60;;;;;;5046740;28;20044;-77
2022/04/23 12:26:34;;;;;;;11.65;6.30;;;20.30;65.10;;;;;;5039949;28;20115;-77
2022/04/23 12:42:52;;;;;;;8.73;6.45;;;20.40;62.50;;;;;;5032927;28;20400;-77
2022/04/23 12:45:20;;;;;;;10.07;6.85;;;20.50;63.20;;;;;;5032415;28;20110;-77
2022/04/23 12:47:45;;;;;;;10.95;5.85;;;20.60;64.30;;;;;;5032751;28;20172;-76
2022/04/23 12:50:11;;;;;;;8.15;7.03;;;20.70;65.20;;;;;;5038763;28;20171;-77
2022/04/23 12:52:39;;;;;;;11.00;7.13;;;20.70;62.00;;;;;;5064504;28;20044;-77
2022/04/23 12:55:21;;;;;;;9.75;6.20;;;20.80;63.00;;;;;;5039466;28;20045;-77
2022/04/23 12:58:04;;;;;;;8.93;6.13;;;20.90;64.30;;;;;;5032348;28;20381;-76
2022/04/23 13:00:38;;;;;;;10.02;6.60;;;20.90;62.60;;;;;;5031232;28;20481;-77
2022/04/23 13:03:48;;;;;;;9.50;6.35;;;20.90;64.40;;;;;;5051827;28;20052;-77
2022/04/23 13:08:54;;;;;;;11.95;6.03;;;20.80;61.80;;;;;;5050411;28;20115;-77
2022/04/23 13:08:57;;;;;;;12.43;5.60;;;20.80;61.90;;;;;;5039892;28;20417;-77
2022/04/23 13:11:30;;;;;;;8.90;5.68;;;20.90;62.30;;;;;;5052232;28;20048;-77
2022/04/23 13:14:04;;;;;;;10.05;5.80;;;20.90;63.20;;;;;;5051991;28;20088;-75
2022/04/23 13:16:31;;;;;;;8.10;5.63;;;21.00;62.10;;;;;;5051822;28;20131;-75
2022/04/23 13:18:59;;;;;;;7.97;5.50;;;21.00;59.80;;;;;;5050574;28;20045;-75
2022/04/23 13:21:27;;;;;;;6.63;5.35;;;21.00;60.90;;;;;;5049681;28;20037;-75
2022/04/23 13:23:54;;;;;;;8.48;5.88;;;21.00;61.40;;;;;;5027466;28;20116;-77